Time;durP1;ratioP1;P1;durP2;ratioP2;P2;SDS_P1;SDS_P2;PMS_P1;PMS_P2;Temp;Humidity;BMP_temperature;BMP_pressure;BME280_temperature;BME280_humidity;BME280_pressure;Samples;Min_cycle;Max_cycle;Signal;HPM_P1;HPM_P2
2022/03/01 00:01:17;;;;;;;20.30;8.18;;;;;;;;;;4949540;28;20062;-65
2022/03/01 00:03:43;;;;;;;15.45;8.23;;;;;;;;;;4948864;28;20503;-64
2022/03/01 00:06:09;;;;;;;18.23;9.38;;;;;;;;;;4948527;28;20058;-65
2022/03/01 00:08:36;;;;;;;17.27;9.05;;;;;;;;;;4945014;28;20935;-64
2022/03/01 00:11:02;;;;;;;16.42;8.82;;;;;;;;;;4936923;28;20060;-64
2022/03/01 00:13:29;;;;;;;18.95;8.63;;;;;;;;;;4949163;28;20062;-64
2022/03/01 00:15:55;;;;;;;19.70;8.77;;;;;;;;;;4949625;28;20060;-64
2022/03/01 00:18:21;;;;;;;20.13;9.80;;;;;;;;;;4948601;28;20134;-64
2022/03/01 00:20:48;;;;;;;17.20;8.50;;;;;;;;;;4949511;28;20056;-64
2022/03/01 00:23:14;;;;;;;18.75;9.32;;;;;;;;;;4949166;28;20594;-64
2022/03/01 00:25:40;;;;;;;17.70;9.30;;;;;;;;;;4949652;28;20106;-64
2022/03/01 00:28:07;;;;;;;17.88;9.10;;;;;;;;;;4947030;28;20091;-64
2022/03/01 00:30:34;;;;;;;22.60;9.50;;;;;;;;;;4948155;28;20150;-64
2022/03/01 00:33:00;;;;;;;19.55;9.68;;;;;;;;;;4947325;28;20115;-64
2022/03/01 00:35:26;;;;;;;17.80;9.10;;;;;;;;;;4948991;28;20535;-64
2022/03/01 00:37:53;;;;;;;17.08;8.90;;;;;;;;;;4948184;28;20585;-64
2022/03/01 00:40:19;;;;;;;19.10;9.43;;;;;;;;;;4947728;28;20060;-64
2022/03/01 00:42:45;;;;;;;18.50;9.25;;;;;;;;;;4944021;28;21163;-64
2022/03/01 00:45:12;;;;;;;20.05;9.70;;;;;;;;;;4936411;28;20058;-64
2022/03/01 00:47:41;;;;;;;19.95;9.15;;;;;;;;;;4933557;28;20066;-64
2022/03/01 00:50:08;;;;;;;25.33;9.07;;;;;;;;;;4936500;28;20055;-65
2022/03/01 00:52:34;;;;;;;18.63;9.25;;;;;;;;;;4938067;28;20059;-64
2022/03/01 00:55:00;;;;;;;19.42;9.30;;;;;;;;;;4943829;28;22139;-64
2022/03/01 00:57:26;;;;;;;18.05;8.88;;;;;;;;;;4923582;28;20056;-64
2022/03/01 00:59:53;;;;;;;17.63;8.32;;;;;;;;;;4946705;28;20066;-64
2022/03/01 01:02:19;;;;;;;18.35;9.27;;;;;;;;;;4945829;28;20062;-64
2022/03/01 01:04:45;;;;;;;17.42;8.55;;;;;;;;;;4948070;28;20561;-64
2022/03/01 01:07:12;;;;;;;18.35;9.10;;;;;;;;;;4948194;28;20055;-64
2022/03/01 01:09:38;;;;;;;18.83;9.48;;;;;;;;;;4948585;28;20052;-64
2022/03/01 01:12:05;;;;;;;24.90;9.77;;;;;;;;;;4948674;28;20063;-64
2022/03/01 01:14:31;;;;;;;17.98;8.57;;;;;;;;;;4947968;28;20510;-64
2022/03/01 01:16:57;;;;;;;19.58;9.38;;;;;;;;;;4948440;28;20052;-64
2022/03/01 01:19:24;;;;;;;18.58;8.75;;;;;;;;;;4948711;28;20062;-64
2022/03/01 01:24:35;;;;;;;18.27;8.88;;;;;;;;;;4948507;28;20134;-64
2022/03/01 01:27:02;;;;;;;21.13;9.45;;;;;;;;;;4946340;28;20055;-65
2022/03/01 01:29:28;;;;;;;21.60;9.40;;;;;;;;;;4947042;28;20509;-64
2022/03/01 01:31:54;;;;;;;23.90;9.68;;;;;;;;;;4948603;28;20066;-64
2022/03/01 01:34:20;;;;;;;20.92;9.82;;;;;;;;;;4948397;28;20060;-65
2022/03/01 01:36:47;;;;;;;22.77;8.77;;;;;;;;;;4946182;28;20060;-65
2022/03/01 01:39:15;;;;;;;;;;;;;;;;;;4948649;28;20075;-64
2022/03/01 01:41:42;;;;;;;17.05;9.10;;;;;;;;;;4946509;28;44681;-64
2022/03/01 01:44:08;;;;;;;21.20;9.98;;;;;;;;;;4948262;28;20630;-64
2022/03/01 01:46:35;;;;;;;18.23;9.38;;;;;;;;;;4947175;28;20533;-64
2022/03/01 01:49:01;;;;;;;18.77;9.25;;;;;;;;;;4947292;28;20173;-64
2022/03/01 01:51:28;;;;;;;18.55;8.90;;;;;;;;;;4948689;28;20091;-65
2022/03/01 01:53:54;;;;;;;18.77;9.45;;;;;;;;;;4950072;28;20091;-64
2022/03/01 01:56:20;;;;;;;18.20;9.30;;;;;;;;;;4949903;28;20062;-64
2022/03/01 01:58:47;;;;;;;21.23;9.65;;;;;;;;;;4951029;28;20557;-64
2022/03/01 02:01:13;;;;;;;19.90;9.18;;;;;;;;;;4950066;28;20051;-65
2022/03/01 02:03:40;;;;;;;18.92;9.35;;;;;;;;;;4950046;28;20115;-64
2022/03/01 02:06:07;;;;;;;23.85;10.07;;;;;;;;;;4934979;28;20060;-64
2022/03/01 02:08:34;;;;;;;19.42;9.80;;;;;;;;;;4950042;28;20510;-64
2022/03/01 02:11:00;;;;;;;17.60;8.60;;;;;;;;;;4951209;28;20154;-64
2022/03/01 02:13:27;;;;;;;19.77;9.80;;;;;;;;;;4948578;28;20055;-64
2022/03/01 02:15:55;;;;;;;17.83;9.40;;;;;;;;;;4948642;28;20058;-64
2022/03/01 02:18:22;;;;;;;20.60;9.93;;;;;;;;;;4944786;28;20585;-64
2022/03/01 02:20:49;;;;;;;18.83;9.43;;;;;;;;;;4949372;28;20087;-64
2022/03/01 02:23:15;;;;;;;19.63;9.10;;;;;;;;;;4950255;28;20197;-65
2022/03/01 02:25:42;;;;;;;17.92;9.70;;;;;;;;;;4950893;28;20062;-64
2022/03/01 02:28:08;;;;;;;17.38;8.70;;;;;;;;;;4948844;28;20059;-64
2022/03/01 02:30:34;;;;;;;20.25;9.57;;;;;;;;;;4949289;28;20062;-64
2022/03/01 02:33:01;;;;;;;17.40;8.73;;;;;;;;;;4948961;28;20534;-64
2022/03/01 02:35:27;;;;;;;18.70;9.50;;;;;;;;;;4950529;28;20055;-64
2022/03/01 02:37:53;;;;;;;19.67;9.13;;;;;;;;;;4950137;28;20060;-64
2022/03/01 02:40:20;;;;;;;17.38;9.38;;;;;;;;;;4949754;28;20060;-64
2022/03/01 02:42:47;;;;;;;17.63;9.90;;;;;;;;;;4949927;28;20055;-64
2022/03/01 02:45:16;;;;;;;20.20;9.57;;;;;;;;;;4950074;28;20066;-65
2022/03/01 02:47:42;;;;;;;16.83;8.77;;;;;;;;;;4948847;28;20063;-64
2022/03/01 02:50:09;;;;;;;18.70;9.68;;;;;;;;;;4949721;28;20046;-65
2022/03/01 02:52:36;;;;;;;18.67;9.52;;;;;;;;;;4949029;28;20083;-64
2022/03/01 02:55:03;;;;;;;19.83;9.88;;;;;;;;;;4949277;28;20147;-65
2022/03/01 02:57:29;;;;;;;21.23;9.93;;;;;;;;;;4950254;28;20074;-64
2022/03/01 02:59:56;;;;;;;19.15;9.23;;;;;;;;;;4951013;28;20438;-64
2022/03/01 03:02:22;;;;;;;17.27;9.02;;;;;;;;;;4948771;28;20060;-65
2022/03/01 03:04:49;;;;;;;21.20;10.05;;;;;;;;;;4948694;28;20601;-64
2022/03/01 03:07:15;;;;;;;19.75;9.55;;;;;;;;;;4950174;28;20059;-64
2022/03/01 03:09:42;;;;;;;21.25;10.10;;;;;;;;;;4949645;28;20056;-64
2022/03/01 03:12:08;;;;;;;19.17;9.07;;;;;;;;;;4949638;28;20060;-64
2022/03/01 03:14:35;;;;;;;19.70;9.95;;;;;;;;;;4949554;28;20130;-64
2022/03/01 03:17:01;;;;;;;22.00;9.70;;;;;;;;;;4949276;28;20052;-64
2022/03/01 03:19:27;;;;;;;17.73;9.32;;;;;;;;;;4950541;28;20159;-64
2022/03/01 03:21:54;;;;;;;18.60;10.32;;;;;;;;;;4950303;28;20047;-64
2022/03/01 03:24:20;;;;;;;18.08;9.98;;;;;;;;;;4949606;28;20061;-64
2022/03/01 03:26:48;;;;;;;19.65;9.60;;;;;;;;;;4948533;28;20981;-65
2022/03/01 03:29:15;;;;;;;18.55;9.82;;;;;;;;;;4949304;28;20052;-64
2022/03/01 03:31:42;;;;;;;22.60;9.95;;;;;;;;;;4949113;28;20059;-64
2022/03/01 03:34:09;;;;;;;21.80;9.98;;;;;;;;;;4949415;28;20064;-64
2022/03/01 03:36:36;;;;;;;20.65;9.75;;;;;;;;;;4948986;28;20052;-64
2022/03/01 03:39:03;;;;;;;18.13;9.40;;;;;;;;;;4948972;28;20070;-65
2022/03/01 03:41:29;;;;;;;16.90;9.52;;;;;;;;;;4947456;28;20047;-64
2022/03/01 03:43:55;;;;;;;23.13;10.13;;;;;;;;;;4947851;28;20055;-64
2022/03/01 03:46:22;;;;;;;20.65;9.48;;;;;;;;;;4949139;28;20554;-64
2022/03/01 03:48:49;;;;;;;19.15;9.32;;;;;;;;;;4949191;28;20562;-64
2022/03/01 03:51:15;;;;;;;20.23;9.65;;;;;;;;;;4948715;28;20055;-64
2022/03/01 03:53:42;;;;;;;20.63;9.95;;;;;;;;;;4948479;28;20926;-64
2022/03/01 03:56:08;;;;;;;23.00;9.82;;;;;;;;;;4948335;28;20528;-64
2022/03/01 03:58:34;;;;;;;20.92;10.30;;;;;;;;;;4948592;28;20052;-64
2022/03/01 04:01:01;;;;;;;19.40;9.48;;;;;;;;;;4948676;28;20048;-65
2022/03/01 04:03:27;;;;;;;19.13;9.45;;;;;;;;;;4948008;28;20048;-64
2022/03/01 04:05:56;;;;;;;17.00;9.52;;;;;;;;;;4948760;28;20531;-65
2022/03/01 04:08:22;;;;;;;21.55;10.18;;;;;;;;;;4948540;28;20051;-64
2022/03/01 04:10:49;;;;;;;20.65;9.38;;;;;;;;;;4948389;28;20054;-64
2022/03/01 04:13:15;;;;;;;19.48;9.57;;;;;;;;;;4948338;28;20095;-64
2022/03/01 04:15:41;;;;;;;15.52;8.32;;;;;;;;;;4946678;28;20062;-66
2022/03/01 04:18:08;;;;;;;16.42;8.93;;;;;;;;;;4948589;28;20056;-64
2022/03/01 04:20:34;;;;;;;21.52;9.68;;;;;;;;;;4947673;28;20529;-64
2022/03/01 04:23:01;;;;;;;18.02;9.52;;;;;;;;;;4949303;28;20347;-64
2022/03/01 04:25:28;;;;;;;19.50;9.88;;;;;;;;;;4947988;28;20059;-65
2022/03/01 04:27:55;;;;;;;18.77;9.45;;;;;;;;;;4948420;28;20576;-65
2022/03/01 04:30:21;;;;;;;19.10;9.52;;;;;;;;;;4948574;28;20083;-64
2022/03/01 04:32:47;;;;;;;17.13;9.20;;;;;;;;;;4949469;28;20054;-64
2022/03/01 04:35:14;;;;;;;21.60;9.05;;;;;;;;;;4949236;28;20525;-64
2022/03/01 04:37:42;;;;;;;23.25;10.43;;;;;;;;;;4949319;28;20059;-64
2022/03/01 04:40:09;;;;;;;17.20;8.73;;;;;;;;;;4948616;28;20146;-64
2022/03/01 04:42:36;;;;;;;18.40;9.27;;;;;;;;;;4949255;28;20062;-65
2022/03/01 04:45:05;;;;;;;16.48;9.20;;;;;;;;;;4949682;28;20055;-64
2022/03/01 04:47:31;;;;;;;16.95;8.73;;;;;;;;;;4949053;28;20056;-64
2022/03/01 04:49:58;;;;;;;19.55;9.38;;;;;;;;;;4944430;28;20056;-64
2022/03/01 04:52:25;;;;;;;15.82;8.15;;;;;;;;;;4929235;29;20060;-64
2022/03/01 04:54:51;;;;;;;21.63;9.35;;;;;;;;;;4929974;29;20055;-64
2022/03/01 04:57:17;;;;;;;21.48;9.50;;;;;;;;;;4929898;29;20060;-64
2022/03/01 04:59:43;;;;;;;16.52;8.93;;;;;;;;;;4929963;29;20052;-64
2022/03/01 05:02:10;;;;;;;17.45;9.38;;;;;;;;;;4938314;28;20667;-64
2022/03/01 05:04:36;;;;;;;18.25;9.38;;;;;;;;;;4948284;28;20055;-64
2022/03/01 05:07:03;;;;;;;16.02;8.18;;;;;;;;;;4948925;28;20087;-64
2022/03/01 05:09:30;;;;;;;15.65;8.82;;;;;;;;;;4948896;28;20097;-64
2022/03/01 05:11:56;;;;;;;17.48;9.13;;;;;;;;;;4947561;28;20066;-64
2022/03/01 05:14:23;;;;;;;20.58;9.48;;;;;;;;;;4949117;28;20059;-64
2022/03/01 05:16:49;;;;;;;17.75;9.10;;;;;;;;;;4947593;28;20528;-64
2022/03/01 05:19:15;;;;;;;18.17;9.18;;;;;;;;;;4948508;28;20147;-65
2022/03/01 05:21:42;;;;;;;18.48;9.50;;;;;;;;;;4947724;28;20056;-63
2022/03/01 05:24:09;;;;;;;18.15;8.95;;;;;;;;;;4947865;28;20151;-63
2022/03/01 05:26:36;;;;;;;15.80;8.80;;;;;;;;;;4950502;28;20086;-64
2022/03/01 05:29:02;;;;;;;18.90;9.80;;;;;;;;;;4951066;28;20052;-64
2022/03/01 05:31:29;;;;;;;16.58;8.25;;;;;;;;;;4950974;28;20922;-64
2022/03/01 05:33:55;;;;;;;20.75;9.55;;;;;;;;;;4951729;28;20055;-64
2022/03/01 05:36:21;;;;;;;16.95;9.18;;;;;;;;;;4950457;28;20542;-64
2022/03/01 05:38:48;;;;;;;17.05;8.48;;;;;;;;;;4951644;28;20064;-66
2022/03/01 05:41:15;;;;;;;16.73;8.50;;;;;;;;;;4951008;28;20109;-64
2022/03/01 05:43:41;;;;;;;17.48;9.35;;;;;;;;;;4951392;28;20052;-64
2022/03/01 05:46:07;;;;;;;19.17;8.73;;;;;;;;;;4950860;28;20055;-65
2022/03/01 05:48:34;;;;;;;18.02;9.43;;;;;;;;;;4951124;28;20059;-64
2022/03/01 05:51:01;;;;;;;19.52;8.95;;;;;;;;;;4950877;28;20066;-64
2022/03/01 05:53:27;;;;;;;17.25;8.82;;;;;;;;;;4951638;28;20051;-64
2022/03/01 05:55:53;;;;;;;16.40;8.93;;;;;;;;;;4949751;28;20046;-64
2022/03/01 05:58:20;;;;;;;17.70;9.32;;;;;;;;;;4950506;28;20499;-64
2022/03/01 06:00:46;;;;;;;21.42;8.98;;;;;;;;;;4951174;28;20040;-64
2022/03/01 06:03:12;;;;;;;18.63;8.98;;;;;;;;;;4948679;28;20052;-64
2022/03/01 06:05:39;;;;;;;16.15;8.88;;;;;;;;;;4950407;28;20520;-65
2022/03/01 06:08:05;;;;;;;17.58;8.98;;;;;;;;;;4951455;28;20054;-64
2022/03/01 06:10:31;;;;;;;16.48;9.30;;;;;;;;;;4947496;28;20066;-65
2022/03/01 06:12:58;;;;;;;17.30;8.25;;;;;;;;;;4951315;28;20056;-64
2022/03/01 06:15:24;;;;;;;19.88;8.77;;;;;;;;;;4950514;28;20056;-64
2022/03/01 06:17:50;;;;;;;17.17;8.68;;;;;;;;;;4951019;28;20052;-64
2022/03/01 06:20:17;;;;;;;20.50;8.60;;;;;;;;;;4950633;28;20060;-65
2022/03/01 06:22:44;;;;;;;19.20;9.40;;;;;;;;;;4951039;28;20159;-64
2022/03/01 06:25:10;;;;;;;18.67;8.68;;;;;;;;;;4951807;28;20064;-64
2022/03/01 06:27:37;;;;;;;21.40;8.57;;;;;;;;;;4950747;28;20575;-64
2022/03/01 06:30:04;;;;;;;14.70;7.65;;;;;;;;;;4951045;28;20071;-64
2022/03/01 06:32:31;;;;;;;17.80;8.75;;;;;;;;;;4951479;28;20062;-64
2022/03/01 06:34:57;;;;;;;18.30;8.10;;;;;;;;;;4950724;28;20527;-64
2022/03/01 06:37:34;;;;;;;15.52;7.45;;;;;;;;;;4949939;28;20058;-64
2022/03/01 06:40:01;;;;;;;16.52;8.23;;;;;;;;;;4950560;28;20059;-64
2022/03/01 06:42:27;;;;;;;16.20;8.07;;;;;;;;;;4950941;28;21483;-64
2022/03/01 06:44:54;;;;;;;20.33;8.20;;;;;;;;;;4950612;28;20066;-64
2022/03/01 06:47:20;;;;;;;16.23;8.40;;;;;;;;;;4950637;28;20059;-64
2022/03/01 06:49:47;;;;;;;19.48;8.65;;;;;;;;;;4950894;28;20054;-64
2022/03/01 06:52:13;;;;;;;20.08;8.73;;;;;;;;;;4950285;28;20056;-64
2022/03/01 06:54:44;;;;;;;18.98;9.07;;;;;;;;;;4950391;28;20063;-65
2022/03/01 06:57:10;;;;;;;16.25;7.90;;;;;;;;;;4950946;28;20058;-64
2022/03/01 06:59:37;;;;;;;18.73;8.38;;;;;;;;;;4950378;28;20111;-64
2022/03/01 07:02:03;;;;;;;22.13;9.00;;;;;;;;;;4950739;28;20051;-64
2022/03/01 07:04:31;;;;;;;17.38;8.80;;;;;;;;;;4945733;28;20063;-64
2022/03/01 07:06:57;;;;;;;17.65;8.85;;;;;;;;;;4950641;28;20060;-64
2022/03/01 07:09:24;;;;;;;18.25;8.63;;;;;;;;;;4949951;28;20150;-64
2022/03/01 07:11:50;;;;;;;19.02;9.15;;;;;;;;;;4950257;28;20510;-65
2022/03/01 07:14:17;;;;;;;17.60;8.15;;;;;;;;;;4950294;28;20605;-65
2022/03/01 07:16:44;;;;;;;19.15;8.23;;;;;;;;;;4950140;28;20160;-65
2022/03/01 07:19:10;;;;;;;15.38;8.32;;;;;;;;;;4950846;28;20055;-65
2022/03/01 07:21:36;;;;;;;18.02;9.32;;;;;;;;;;4947982;28;20059;-64
2022/03/01 07:24:03;;;;;;;15.93;8.57;;;;;;;;;;4948972;28;20897;-64
2022/03/01 07:26:29;;;;;;;17.05;9.15;;;;;;;;;;4943230;28;20082;-64
2022/03/01 07:28:55;;;;;;;19.15;8.77;;;;;;;;;;4949805;28;20066;-64
2022/03/01 07:31:22;;;;;;;17.65;8.40;;;;;;;;;;4949492;28;20060;-64
2022/03/01 07:33:51;;;;;;;16.17;7.60;;;;;;;;;;4948861;28;21029;-64
2022/03/01 07:36:17;;;;;;;20.20;9.05;;;;;;;;;;4949619;28;20153;-64
2022/03/01 07:38:43;;;;;;;17.42;8.50;;;;;;;;;;4949960;28;20055;-64
2022/03/01 07:41:10;;;;;;;19.50;8.80;;;;;;;;;;4947873;28;20147;-64
2022/03/01 07:43:36;;;;;;;19.08;9.00;;;;;;;;;;4949101;28;20442;-64
2022/03/01 07:46:03;;;;;;;19.27;9.35;;;;;;;;;;4949902;28;20054;-64
2022/03/01 07:48:29;;;;;;;18.35;9.20;;;;;;;;;;4948959;28;20052;-64
2022/03/01 07:50:56;;;;;;;16.50;8.30;;;;;;;;;;4949951;28;20060;-64
2022/03/01 07:53:22;;;;;;;18.38;9.07;;;;;;;;;;4949728;28;20066;-64
2022/03/01 07:55:48;;;;;;;21.13;8.90;;;;;;;;;;4948586;28;20047;-64
2022/03/01 07:58:15;;;;;;;19.15;9.18;;;;;;;;;;4948634;28;20513;-64
2022/03/01 08:00:41;;;;;;;17.55;8.85;;;;;;;;;;4950089;28;20112;-64
2022/03/01 08:03:08;;;;;;;19.17;8.32;;;;;;;;;;4948195;28;20116;-64
2022/03/01 08:05:34;;;;;;;17.20;7.78;;;;;;;;;;4948171;28;20562;-64
2022/03/01 08:08:01;;;;;;;18.60;8.57;;;;;;;;;;4949207;28;20060;-64
2022/03/01 08:10:28;;;;;;;22.70;9.40;;;;;;;;;;4946290;28;20070;-64
2022/03/01 08:12:54;;;;;;;16.00;8.43;;;;;;;;;;4942118;28;20155;-64
2022/03/01 08:15:23;;;;;;;20.70;9.27;;;;;;;;;;4948507;28;20707;-64
2022/03/01 08:17:50;;;;;;;20.17;9.85;;;;;;;;;;4944498;28;20060;-64
2022/03/01 08:20:17;;;;;;;17.60;8.55;;;;;;;;;;4948035;28;20059;-63
2022/03/01 08:22:43;;;;;;;16.88;8.68;;;;;;;;;;4949230;28;20063;-64
2022/03/01 08:25:09;;;;;;;16.73;8.90;;;;;;;;;;4949161;28;20056;-64
2022/03/01 08:27:36;;;;;;;17.48;8.77;;;;;;;;;;4948046;28;20055;-64
2022/03/01 08:30:04;;;;;;;18.08;9.23;;;;;;;;;;4934957;28;20067;-64
2022/03/01 08:32:31;;;;;;;19.05;9.38;;;;;;;;;;4943959;28;20060;-64
2022/03/01 08:34:57;;;;;;;17.13;9.02;;;;;;;;;;4948191;28;20561;-63
2022/03/01 08:37:24;;;;;;;19.77;9.68;;;;;;;;;;4948157;28;20063;-64
2022/03/01 08:39:50;;;;;;;17.00;8.63;;;;;;;;;;4946596;28;20528;-65
2022/03/01 08:42:16;;;;;;;29.10;10.25;;;;;;;;;;4949395;28;20051;-64
2022/03/01 08:44:43;;;;;;;18.98;8.55;;;;;;;;;;4948562;28;20639;-64
2022/03/01 08:47:09;;;;;;;22.98;9.98;;;;;;;;;;4948594;28;20054;-64
2022/03/01 08:49:36;;;;;;;21.02;9.77;;;;;;;;;;4948796;28;20150;-64
2022/03/01 08:52:06;;;;;;;20.70;9.70;;;;;;;;;;4947108;28;20060;-64
2022/03/01 08:54:33;;;;;;;21.45;10.38;;;;;;;;;;4947859;28;20048;-64
2022/03/01 08:56:59;;;;;;;20.77;10.70;;;;;;;;;;4948294;28;20059;-64
2022/03/01 08:59:26;;;;;;;20.15;10.50;;;;;;;;;;4948593;28;20139;-64
2022/03/01 09:01:52;;;;;;;21.77;10.00;;;;;;;;;;4954315;28;20532;-64
2022/03/01 09:04:18;;;;;;;19.30;9.98;;;;;;;;;;4955658;28;20463;-64
2022/03/01 09:06:46;;;;;;;17.85;10.25;;;;;;;;;;4940238;28;20115;-64
2022/03/01 09:09:18;;;;;;;18.52;9.85;;;;;;;;;;4935689;29;20087;-64
2022/03/01 09:11:44;;;;;;;17.20;9.23;;;;;;;;;;4938498;28;20060;-64
2022/03/01 09:14:11;;;;;;;20.50;9.77;;;;;;;;;;4952905;28;20488;-64
2022/03/01 09:16:38;;;;;;;19.90;10.07;;;;;;;;;;4954131;28;20059;-64
2022/03/01 09:19:05;;;;;;;16.75;9.50;;;;;;;;;;4954562;28;20051;-63
2022/03/01 09:21:31;;;;;;;19.02;9.77;;;;;;;;;;4953370;28;20058;-64
2022/03/01 09:23:57;;;;;;;19.85;10.32;;;;;;;;;;4952384;28;20134;-64
2022/03/01 09:26:24;;;;;;;16.40;9.07;;;;;;;;;;4935625;29;20904;-64
2022/03/01 09:28:50;;;;;;;16.17;9.18;;;;;;;;;;4935529;29;20071;-64
2022/03/01 09:31:16;;;;;;;16.17;8.88;;;;;;;;;;4953176;28;20062;-64
2022/03/01 09:33:43;;;;;;;21.38;9.63;;;;;;;;;;4954616;28;20047;-64
2022/03/01 09:36:10;;;;;;;15.90;8.75;;;;;;;;;;4954284;28;20110;-64
2022/03/01 09:38:37;;;;;;;17.17;9.95;;;;;;;;;;4954821;28;20062;-64
2022/03/01 09:41:03;;;;;;;18.95;9.25;;;;;;;;;;4953796;28;20536;-64
2022/03/01 09:43:35;;;;;;;18.70;9.95;;;;;;;;;;4935646;29;20523;-64
2022/03/01 09:46:01;;;;;;;21.92;10.35;;;;;;;;;;4946431;28;20506;-64
2022/03/01 09:48:28;;;;;;;22.25;10.20;;;;;;;;;;4952926;28;20059;-64
2022/03/01 09:50:54;;;;;;;19.40;10.68;;;;;;;;;;4954545;28;20085;-64
2022/03/01 09:53:21;;;;;;;21.25;9.48;;;;;;;;;;4955137;28;20062;-64
2022/03/01 09:55:47;;;;;;;20.60;10.23;;;;;;;;;;4952783;28;20488;-64
2022/03/01 09:58:14;;;;;;;21.33;9.65;;;;;;;;;;4954311;28;20155;-64
2022/03/01 10:00:40;;;;;;;19.48;10.30;;;;;;;;;;4954722;28;20565;-64
2022/03/01 10:03:08;;;;;;;20.00;11.20;;;;;;;;;;4954908;28;20637;-64
2022/03/01 10:05:38;;;;;;;20.98;10.45;;;;;;;;;;4953820;28;20056;-64
2022/03/01 10:08:15;;;;;;;19.95;10.25;;;;;;;;;;4954951;28;20055;-64
2022/03/01 10:10:42;;;;;;;20.88;11.23;;;;;;;;;;4953804;28;20062;-64
2022/03/01 10:13:09;;;;;;;19.38;9.73;;;;;;;;;;4950140;28;20178;-64
2022/03/01 10:15:38;;;;;;;20.20;10.25;;;;;;;;;;4949373;28;20437;-64
2022/03/01 10:18:12;;;;;;;20.27;10.85;;;;;;;;;;4950946;28;20503;-64
2022/03/01 10:20:41;;;;;;;17.38;10.30;;;;;;;;;;4949361;28;20433;-65
2022/03/01 10:23:07;;;;;;;;;;;;;;;;;;4951976;28;20540;-64
2022/03/01 10:25:35;;;;;;;20.40;9.98;;;;;;;;;;4948287;28;42357;-64
2022/03/01 10:28:02;;;;;;;22.17;10.15;;;;;;;;;;4951514;28;20107;-63
2022/03/01 10:30:30;;;;;;;19.75;10.25;;;;;;;;;;4949332;28;20066;-65
2022/03/01 10:33:02;;;;;;;22.00;10.98;;;;;;;;;;4951224;28;20056;-63
2022/03/01 10:35:29;;;;;;;20.83;11.15;;;;;;;;;;4950231;28;20146;-65
2022/03/01 10:37:55;;;;;;;22.13;11.00;;;;;;;;;;4951303;28;20062;-65
2022/03/01 10:40:22;;;;;;;19.63;10.98;;;;;;;;;;4949607;28;20052;-65
2022/03/01 10:43:07;;;;;;;21.83;10.68;;;;;;;;;;4950225;28;20147;-65
2022/03/01 10:45:44;;;;;;;24.48;11.93;;;;;;;;;;4950614;28;20513;-65
2022/03/01 10:48:11;;;;;;;25.83;11.43;;;;;;;;;;4949203;28;20055;-65
2022/03/01 10:50:38;;;;;;;20.17;11.13;;;;;;;;;;4949468;28;20510;-65
2022/03/01 10:53:06;;;;;;;20.33;10.93;;;;;;;;;;4950855;28;20581;-65
2022/03/01 10:55:33;;;;;;;20.35;11.15;;;;;;;;;;4950232;28;20134;-65
2022/03/01 10:58:04;;;;;;;19.02;10.73;;;;;;;;;;4949492;28;20178;-63
2022/03/01 11:00:31;;;;;;;20.73;11.43;;;;;;;;;;4949716;28;20517;-63
2022/03/01 11:02:58;;;;;;;18.75;9.93;;;;;;;;;;4949820;28;20059;-64
2022/03/01 11:05:26;;;;;;;24.25;11.50;;;;;;;;;;4950065;28;20959;-63
2022/03/01 11:08:13;;;;;;;24.02;12.13;;;;;;;;;;4949415;28;20894;-64
2022/03/01 11:10:41;;;;;;;22.63;11.68;;;;;;;;;;4947255;28;20062;-64
2022/03/01 11:13:07;;;;;;;23.70;12.23;;;;;;;;;;4943631;28;20147;-64
2022/03/01 11:15:40;;;;;;;20.85;11.55;;;;;;;;;;4930692;28;20056;-64
2022/03/01 11:18:24;;;;;;;22.40;11.55;;;;;;;;;;4937795;28;20524;-64
2022/03/01 11:20:52;;;;;;;26.55;15.43;;;;;;;;;;4949564;28;20051;-64
2022/03/01 11:23:21;;;;;;;23.80;13.82;;;;;;;;;;4949912;28;20154;-64
2022/03/01 11:25:48;;;;;;;24.13;12.67;;;;;;;;;;4950646;28;20079;-64
2022/03/01 11:28:16;;;;;;;21.65;12.82;;;;;;;;;;4950000;28;20280;-64
2022/03/01 11:30:43;;;;;;;;;;;;;;;;;;4949334;28;20066;-64
2022/03/01 11:33:09;;;;;;;25.65;12.85;;;;;;;;;;4947755;28;45310;-64
2022/03/01 11:35:37;;;;;;;23.63;11.95;;;;;;;;;;4949655;28;20055;-64
2022/03/01 11:38:03;;;;;;;24.20;12.55;;;;;;;;;;4950168;28;20082;-64
2022/03/01 11:40:39;;;;;;;27.15;13.40;;;;;;;;;;4948584;28;20115;-64
2022/03/01 11:43:15;;;;;;;27.42;13.57;;;;;;;;;;4948544;28;20070;-64
2022/03/01 11:46:01;;;;;;;26.58;12.77;;;;;;;;;;4949633;28;20051;-64
2022/03/01 11:48:29;;;;;;;22.55;12.68;;;;;;;;;;4949810;28;20063;-63
2022/03/01 11:51:01;;;;;;;22.17;11.57;;;;;;;;;;4948551;28;20155;-64
2022/03/01 11:53:29;;;;;;;22.15;11.38;;;;;;;;;;4948340;28;20371;-63
2022/03/01 11:55:57;;;;;;;27.45;12.00;;;;;;;;;;4949482;28;20159;-64
2022/03/01 11:58:24;;;;;;;30.92;12.35;;;;;;;;;;4948235;28;20150;-63
2022/03/01 12:00:51;;;;;;;22.67;12.70;;;;;;;;;;4948839;28;20059;-63
2022/03/01 12:03:22;;;;;;;25.85;12.50;;;;;;;;;;4949947;28;20052;-64
2022/03/01 12:05:49;;;;;;;21.63;12.40;;;;;;;;;;4949841;28;20056;-63
2022/03/01 12:08:16;;;;;;;25.10;13.07;;;;;;;;;;4948847;28;20959;-64
2022/03/01 12:10:54;;;;;;;23.05;12.30;;;;;;;;;;4948438;28;20162;-64
2022/03/01 12:13:21;;;;;;;23.95;12.85;;;;;;;;;;4949397;28;20146;-64
2022/03/01 12:15:55;;;;;;;22.55;12.73;;;;;;;;;;4947088;28;20051;-64
2022/03/01 12:18:27;;;;;;;24.73;12.70;;;;;;;;;;4947879;28;20052;-63
2022/03/01 12:20:53;;;;;;;26.13;12.07;;;;;;;;;;4949081;28;20051;-63
2022/03/01 12:23:27;;;;;;;23.55;11.90;;;;;;;;;;4948647;28;20071;-63
2022/03/01 12:25:54;;;;;;;19.70;10.85;;;;;;;;;;4949014;28;20514;-63
2022/03/01 12:28:21;;;;;;;21.08;11.57;;;;;;;;;;4948951;28;20048;-63
2022/03/01 12:30:48;;;;;;;23.60;12.00;;;;;;;;;;4948504;28;20063;-63
2022/03/01 12:33:15;;;;;;;23.08;11.52;;;;;;;;;;4948431;28;20063;-63
2022/03/01 12:35:42;;;;;;;22.38;11.63;;;;;;;;;;4947422;28;20052;-63
2022/03/01 12:38:13;;;;;;;23.08;12.18;;;;;;;;;;4948843;28;20438;-63
2022/03/01 12:40:41;;;;;;;23.52;12.45;;;;;;;;;;4947873;28;20104;-63
2022/03/01 12:43:11;;;;;;;23.70;12.37;;;;;;;;;;4949072;28;20099;-62
2022/03/01 12:45:40;;;;;;;23.58;12.32;;;;;;;;;;4948402;28;20536;-65
2022/03/01 12:48:07;;;;;;;21.55;11.68;;;;;;;;;;4949178;28;20059;-64
2022/03/01 12:50:34;;;;;;;21.98;11.95;;;;;;;;;;4947784;28;20067;-65
2022/03/01 12:53:01;;;;;;;21.77;12.32;;;;;;;;;;4947204;28;20057;-65
2022/03/01 12:55:27;;;;;;;29.95;12.63;;;;;;;;;;4947844;28;20051;-64
2022/03/01 12:57:53;;;;;;;23.45;13.13;;;;;;;;;;4947993;28;20928;-63
2022/03/01 13:00:20;;;;;;;23.50;13.10;;;;;;;;;;4948354;28;20094;-64
2022/03/01 13:02:55;;;;;;;26.15;13.18;;;;;;;;;;4948077;28;20062;-63
2022/03/01 13:05:26;;;;;;;22.48;12.48;;;;;;;;;;4948891;28;20147;-65
2022/03/01 13:07:52;;;;;;;25.38;13.20;;;;;;;;;;4948286;28;20125;-65
2022/03/01 13:10:25;;;;;;;25.85;12.57;;;;;;;;;;4947901;28;20063;-64
2022/03/01 13:12:52;;;;;;;25.52;12.80;;;;;;;;;;4947942;28;20143;-64
2022/03/01 13:15:22;;;;;;;28.10;13.55;;;;;;;;;;4947206;28;20446;-63
2022/03/01 13:17:55;;;;;;;22.38;12.80;;;;;;;;;;4948557;28;20060;-64
2022/03/01 13:20:22;;;;;;;26.92;13.20;;;;;;;;;;4948318;28;20062;-62
2022/03/01 13:23:03;;;;;;;22.45;12.43;;;;;;;;;;4948368;28;20055;-64
2022/03/01 13:25:30;;;;;;;24.15;13.27;;;;;;;;;;4947193;28;20066;-64
2022/03/01 13:27:57;;;;;;;27.30;13.40;;;;;;;;;;4948488;28;20139;-64
2022/03/01 13:30:24;;;;;;;23.88;13.35;;;;;;;;;;4946875;28;20572;-65
2022/03/01 13:33:00;;;;;;;31.10;13.70;;;;;;;;;;4948073;28;20066;-64
2022/03/01 13:35:28;;;;;;;30.20;14.45;;;;;;;;;;4946788;28;20114;-66
2022/03/01 13:37:58;;;;;;;23.80;12.77;;;;;;;;;;4945700;28;20544;-65
2022/03/01 13:40:25;;;;;;;29.70;13.10;;;;;;;;;;4948102;28;20495;-65
2022/03/01 13:42:51;;;;;;;24.73;13.85;;;;;;;;;;4947736;28;20056;-65
2022/03/01 13:45:17;;;;;;;24.65;13.23;;;;;;;;;;4947307;28;20060;-65
2022/03/01 13:47:44;;;;;;;26.52;12.52;;;;;;;;;;4950585;28;20440;-65
2022/03/01 13:50:12;;;;;;;24.15;13.48;;;;;;;;;;4947536;28;20059;-67
2022/03/01 13:52:42;;;;;;;24.65;12.80;;;;;;;;;;4951297;28;20213;-65
2022/03/01 13:55:19;;;;;;;20.10;11.75;;;;;;;;;;4950630;28;20086;-66
2022/03/01 13:57:47;;;;;;;22.00;12.07;;;;;;;;;;4951643;28;20070;-66
2022/03/01 14:00:19;;;;;;;24.88;13.30;;;;;;;;;;4951277;28;20057;-68
2022/03/01 14:03:02;;;;;;;23.13;13.23;;;;;;;;;;4951323;28;20051;-65
2022/03/01 14:05:29;;;;;;;22.70;12.75;;;;;;;;;;4950131;28;20059;-66
2022/03/01 14:08:06;;;;;;;25.33;12.80;;;;;;;;;;4949998;28;20051;-69
2022/03/01 14:10:34;;;;;;;24.02;12.73;;;;;;;;;;4950726;28;20180;-65
2022/03/01 14:13:02;;;;;;;23.20;12.02;;;;;;;;;;4935493;28;20142;-65
2022/03/01 14:15:32;;;;;;;30.48;13.38;;;;;;;;;;4949948;28;20138;-65
2022/03/01 14:17:59;;;;;;;27.02;12.50;;;;;;;;;;4950465;28;20052;-69
2022/03/01 14:20:26;;;;;;;24.58;13.23;;;;;;;;;;4950037;28;20142;-65
2022/03/01 14:22:53;;;;;;;22.35;12.07;;;;;;;;;;4949941;28;20087;-65
2022/03/01 14:25:20;;;;;;;24.95;13.65;;;;;;;;;;4948607;28;20063;-65
2022/03/01 14:27:46;;;;;;;24.00;13.55;;;;;;;;;;4950525;28;20059;-65
2022/03/01 14:30:13;;;;;;;25.17;13.07;;;;;;;;;;4950763;28;20178;-66